createdAt,value
2022-10-28T00:00:02.556Z,13.6
2022-10-28T00:15:02.928Z,13.6
2022-10-28T00:30:02.555Z,13.5
2022-10-28T00:45:02.804Z,13.5
2022-10-28T01:00:03.241Z,13.4
2022-10-28T01:15:02.677Z,13.3
2022-10-28T01:30:03.093Z,13.3
2022-10-28T01:45:02.544Z,13.2
2022-10-28T02:00:02.953Z,13.1
2022-10-28T02:15:02.591Z,13.0
2022-10-28T02:30:02.858Z,12.8
2022-10-28T02:45:02.320Z,12.7
2022-10-28T03:00:02.721Z,12.6
2022-10-28T03:15:03.170Z,12.4
2022-10-28T03:30:02.582Z,12.2
2022-10-28T03:45:03.037Z,12.1
2022-10-28T04:00:02.608Z,11.9
2022-10-28T04:15:02.921Z,11.8
2022-10-28T04:30:02.581Z,11.6
2022-10-28T04:45:02.801Z,11.4
2022-10-28T05:00:03.238Z,11.1
2022-10-28T05:15:02.689Z,11.1
2022-10-28T05:30:03.099Z,10.9
2022-10-28T05:45:02.597Z,10.7
2022-10-28T06:00:02.975Z,10.6
2022-10-28T06:15:01.074Z,10.5
2022-10-28T06:30:01.349Z,10.5
2022-10-28T06:45:00.816Z,10.6
2022-10-28T07:00:02.760Z,10.8
2022-10-28T07:15:03.186Z,10.9
2022-10-28T07:30:02.661Z,11.1
2022-10-28T07:45:03.089Z,11.4
2022-10-28T08:00:02.684Z,12.0
2022-10-28T08:15:02.955Z,13.3
2022-10-28T08:30:02.371Z,15.2
2022-10-28T08:45:02.914Z,17.9
2022-10-28T09:00:02.243Z,20.0
2022-10-28T09:15:02.716Z,21.6
2022-10-28T09:30:03.158Z,21.7
2022-10-28T09:45:02.653Z,23.3
2022-10-28T10:00:02.996Z,23.8
2022-10-28T10:15:02.647Z,24.0
2022-10-28T10:30:02.871Z,23.3
2022-10-28T10:45:02.284Z,22.6
2022-10-28T11:00:02.730Z,22.9
2022-10-28T11:15:03.168Z,23.5
2022-10-28T11:30:02.670Z,24.2
2022-10-28T11:45:03.033Z,24.7
2022-10-28T12:00:02.698Z,24.9
2022-10-28T12:15:02.892Z,24.6
2022-10-28T12:30:02.343Z,24.1
2022-10-28T12:45:02.776Z,24.2
2022-10-28T13:00:03.211Z,24.2
2022-10-28T13:15:02.746Z,23.8
2022-10-28T13:30:02.100Z,23.6
2022-10-28T13:45:02.699Z,23.3
2022-10-28T14:00:02.977Z,23.1
2022-10-28T14:15:02.409Z,22.8
2022-10-28T14:30:02.843Z,22.5
2022-10-28T14:45:02.238Z,22.3
2022-10-28T15:00:02.720Z,22.1
2022-10-28T15:15:02.126Z,21.8
2022-10-28T15:30:02.723Z,21.4
2022-10-28T15:45:03.033Z,20.8
2022-10-28T16:00:02.513Z,20.5
2022-10-28T16:15:02.887Z,20.1
2022-10-28T16:30:02.317Z,20.0
2022-10-28T16:45:02.754Z,20.3
2022-10-28T17:00:03.200Z,20.3
2022-10-28T17:15:02.738Z,20.2
2022-10-28T17:30:03.170Z,20.0
2022-10-28T17:45:02.739Z,19.8
2022-10-28T18:00:02.952Z,19.5
2022-10-28T18:15:02.385Z,19.0
2022-10-28T18:30:02.826Z,18.6
2022-10-28T18:45:02.261Z,18.6
2022-10-28T19:00:19.071Z,18.6
2022-10-28T19:15:03.127Z,18.5
2022-10-28T19:30:05.478Z,18.3
2022-10-28T19:45:01.987Z,18.0
2022-10-28T20:00:02.427Z,17.7
2022-10-28T20:15:02.873Z,17.5
2022-10-28T20:30:02.290Z,17.2
2022-10-28T20:45:02.777Z,16.9
2022-10-28T21:00:03.169Z,16.8
2022-10-28T21:15:02.782Z,16.5
2022-10-28T21:30:02.110Z,16.3
2022-10-28T21:45:02.478Z,16.1
2022-10-28T22:00:02.914Z,15.6
2022-10-28T22:15:03.347Z,15.3
2022-10-28T22:30:02.818Z,14.8
2022-10-28T22:45:03.212Z,14.5
2022-10-28T23:00:02.915Z,14.1
2022-10-28T23:15:02.080Z,13.8
2022-10-28T23:30:02.556Z,13.8
2022-10-28T23:45:03.000Z,13.9
